Terminal Aerodrome Forecast
Issued by NWS

Home | Current Version | Previous Version | Text Only | Print | Product List | Glossary On
Versions: 1 2 3 4 5 6 7 8 9 10 11 12 13 14 15 16 17 18 19 20 21 22 23 24
000
FTUS41 KGYX 220520
TAFHIE
TAF
KHIE 220520Z 2206/2306 00000KT P6SM SKC
     FM221500 00000KT P6SM OVC030 PROB30 2215/2217 2SM -RA OVC015
     FM221700 00000KT P6SM OVC017 PROB30 2217/2221 2SM -RASN OVC003
     FM222100 31005KT P6SM BKN021
     FM230300 33010KT P6SM SCT040=

USA.gov is the U.S. government's official web portal to all federal, state and local government web resources and services.